createdAt,value
2023-04-12T00:00:36.814Z,0.80
2023-04-12T00:01:37.145Z,0.90
2023-04-12T00:02:37.754Z,1.10
2023-04-12T00:03:37.952Z,1.50
2023-04-12T00:04:38.149Z,0.90
2023-04-12T00:05:38.311Z,0.80
2023-04-12T00:06:38.642Z,1.30
2023-04-12T00:07:38.964Z,0.80
2023-04-12T00:08:39.273Z,0.70
2023-04-12T00:09:39.602Z,0.90
2023-04-12T00:10:39.883Z,0.90
2023-04-12T00:11:40.202Z,1.00
2023-04-12T00:12:40.547Z,1.10
2023-04-12T00:13:40.753Z,0.80
2023-04-12T00:14:41.071Z,0.90
2023-04-12T00:15:41.393Z,0.90
2023-04-12T00:16:41.746Z,1.00
2023-04-12T00:17:41.958Z,1.10
2023-04-12T00:18:42.279Z,1.30
2023-04-12T00:19:42.612Z,0.90
2023-04-12T00:20:42.897Z,0.90
2023-04-12T00:21:43.241Z,1.10
2023-04-12T00:22:43.566Z,0.80
2023-04-12T00:23:43.914Z,0.70
2023-04-12T00:24:44.234Z,1.40
2023-04-12T00:25:44.561Z,0.70
2023-04-12T00:26:44.895Z,1.20
2023-04-12T00:27:45.245Z,1.60
2023-04-12T00:28:45.438Z,1.00
2023-04-12T00:29:45.741Z,1.00
2023-04-12T00:30:46.070Z,0.70
2023-04-12T00:31:46.470Z,0.90
2023-04-12T00:32:46.725Z,1.10
2023-04-12T00:33:47.038Z,1.00
2023-04-12T00:34:47.369Z,1.00
2023-04-12T00:35:47.623Z,0.80
2023-04-12T00:36:47.839Z,1.10
2023-04-12T00:37:48.129Z,0.90
2023-04-12T00:38:48.426Z,1.00
2023-04-12T00:39:48.749Z,1.30
2023-04-12T00:40:49.069Z,1.30
2023-04-12T00:41:49.442Z,1.20
2023-04-12T00:42:49.636Z,1.10
2023-04-12T00:43:49.961Z,0.80
2023-04-12T00:44:50.250Z,1.00
2023-04-12T00:45:50.568Z,0.90
2023-04-12T00:46:50.906Z,1.00
2023-04-12T00:47:51.206Z,1.00
2023-04-12T00:48:51.536Z,0.60
2023-04-12T00:49:51.875Z,0.80
2023-04-12T00:50:52.206Z,0.70
2023-04-12T00:51:52.539Z,0.80
2023-04-12T00:52:52.760Z,0.90
2023-04-12T00:53:53.127Z,0.80
2023-04-12T00:54:53.404Z,0.90
2023-04-12T00:55:53.736Z,1.00
2023-04-12T00:56:53.932Z,1.00
2023-04-12T00:57:54.312Z,0.80
2023-04-12T00:58:54.632Z,0.60
2023-04-12T00:59:54.828Z,0.70
2023-04-12T01:00:55.206Z,0.70
2023-04-12T01:01:55.539Z,0.60
2023-04-12T01:02:55.835Z,1.10
2023-04-12T01:03:56.229Z,0.70
2023-04-12T01:04:56.349Z,0.90
2023-04-12T01:05:56.652Z,0.60
2023-04-12T01:06:56.966Z,0.80
2023-04-12T01:07:57.277Z,0.70
2023-04-12T01:08:57.610Z,0.80
2023-04-12T01:09:57.902Z,0.70
2023-04-12T01:10:58.223Z,1.00
2023-04-12T01:11:58.626Z,0.80
2023-04-12T01:12:58.799Z,0.90
2023-04-12T01:13:59.117Z,0.90
2023-04-12T01:14:59.437Z,0.90
2023-04-12T01:15:59.844Z,1.00
2023-04-12T01:17:00.068Z,0.80
2023-04-12T01:18:00.466Z,0.80
2023-04-12T01:19:00.841Z,1.10
2023-04-12T01:20:01.047Z,1.00
2023-04-12T01:21:01.288Z,0.80
2023-04-12T01:22:01.624Z,0.60
2023-04-12T01:23:01.971Z,0.90
2023-04-12T01:24:02.239Z,0.90
2023-04-12T01:25:02.536Z,0.90
2023-04-12T01:26:02.917Z,0.80
2023-04-12T01:27:03.104Z,0.70
2023-04-12T01:28:03.398Z,0.80
2023-04-12T01:29:03.711Z,1.00
2023-04-12T01:30:04.022Z,0.70
2023-04-12T01:31:04.345Z,0.80
2023-04-12T01:32:04.831Z,0.60
2023-04-12T01:33:05.081Z,1.00
2023-04-12T01:34:05.244Z,0.50
2023-04-12T01:35:05.554Z,0.70
2023-04-12T01:36:07.390Z,1.10
2023-04-12T01:37:06.188Z,0.90
2023-04-12T01:38:06.484Z,0.50
2023-04-12T01:39:06.784Z,0.80
2023-04-12T01:40:07.081Z,0.90
2023-04-12T01:41:07.385Z,0.50
2023-04-12T01:42:07.710Z,0.80
2023-04-12T01:43:08.017Z,0.80
2023-04-12T01:44:08.326Z,0.80
2023-04-12T01:45:08.696Z,0.80
2023-04-12T01:46:08.989Z,1.00
2023-04-12T01:47:09.271Z,0.80
2023-04-12T01:48:09.619Z,1.20
2023-04-12T01:49:09.882Z,0.80
2023-04-12T01:50:10.183Z,0.90
2023-04-12T01:51:10.482Z,1.00
2023-04-12T01:52:10.806Z,1.20
2023-04-12T01:53:11.086Z,0.90
2023-04-12T01:54:11.451Z,1.20
2023-04-12T01:55:11.684Z,0.90
2023-04-12T01:56:11.996Z,0.90
2023-04-12T01:57:12.322Z,0.80
2023-04-12T01:58:12.620Z,1.00
2023-04-12T01:59:12.934Z,0.90
2023-04-12T02:00:13.231Z,0.90
2023-04-12T02:01:13.702Z,1.30
2023-04-12T02:02:13.982Z,1.10
2023-04-12T02:03:14.302Z,0.70
2023-04-12T02:04:14.373Z,0.80
2023-04-12T02:05:14.645Z,0.90
2023-04-12T02:06:14.934Z,1.10
2023-04-12T02:07:15.257Z,0.90
2023-04-12T02:08:15.584Z,0.90
2023-04-12T02:09:15.884Z,0.90
2023-04-12T02:10:16.226Z,1.10
2023-04-12T02:11:16.417Z,0.90
2023-04-12T02:12:16.760Z,0.80
2023-04-12T02:13:17.119Z,1.00
2023-04-12T02:14:17.433Z,0.80
2023-04-12T02:15:17.700Z,0.90
2023-04-12T02:16:17.966Z,1.60
2023-04-12T02:17:18.264Z,1.10
2023-04-12T02:18:18.561Z,0.90
2023-04-12T02:19:18.862Z,1.20
2023-04-12T02:20:19.168Z,1.30
2023-04-12T02:21:19.548Z,1.30
2023-04-12T02:22:19.729Z,1.00
2023-04-12T02:23:20.068Z,0.90
2023-04-12T02:24:20.382Z,1.30
2023-04-12T02:25:20.733Z,1.30
2023-04-12T02:26:20.929Z,1.30
2023-04-12T02:27:21.254Z,1.10
2023-04-12T02:28:21.552Z,1.20
2023-04-12T02:29:22.031Z,1.00
2023-04-12T02:30:22.189Z,1.10
2023-04-12T02:31:22.549Z,1.00
2023-04-12T02:32:22.787Z,1.40
2023-04-12T02:33:23.051Z,1.10
2023-04-12T02:34:23.356Z,1.60
2023-04-12T02:35:23.691Z,1.00
2023-04-12T02:36:23.959Z,1.30
2023-04-12T02:37:24.284Z,0.80
2023-04-12T02:38:24.575Z,1.10
2023-04-12T02:39:24.873Z,1.10
2023-04-12T02:40:25.190Z,1.00
2023-04-12T02:41:25.534Z,1.10
2023-04-12T02:42:25.808Z,1.80
2023-04-12T02:43:26.094Z,1.10
2023-04-12T02:44:26.443Z,1.30
2023-04-12T02:45:26.749Z,1.00
2023-04-12T02:46:27.207Z,1.40
2023-04-12T02:47:27.488Z,1.40
2023-04-12T02:48:27.607Z,1.50
2023-04-12T02:49:27.919Z,1.20
2023-04-12T02:50:28.240Z,1.30
2023-04-12T02:51:28.550Z,1.40
2023-04-12T02:52:28.889Z,1.80
2023-04-12T02:53:29.233Z,2.20
2023-04-12T02:54:29.511Z,2.20
2023-04-12T02:55:29.807Z,1.60
2023-04-12T02:56:30.154Z,1.60
2023-04-12T02:57:30.450Z,1.70
2023-04-12T02:58:30.772Z,1.70
2023-04-12T02:59:31.094Z,1.80
2023-04-12T03:00:31.388Z,1.70
2023-04-12T03:01:32.057Z,1.90
2023-04-12T03:02:32.082Z,1.70
2023-04-12T03:03:32.536Z,2.10
2023-04-12T03:04:32.928Z,1.70
2023-04-12T03:05:32.908Z,1.70
2023-04-12T03:06:33.227Z,1.50
2023-04-12T03:07:33.540Z,1.80
2023-04-12T03:08:33.839Z,1.70
2023-04-12T03:09:34.139Z,1.60
2023-04-12T03:10:34.445Z,2.10
2023-04-12T03:11:34.743Z,2.00
2023-04-12T03:12:35.044Z,1.90
2023-04-12T03:13:35.347Z,2.10
2023-04-12T03:14:35.637Z,1.90
2023-04-12T03:15:35.988Z,1.70
2023-04-12T03:16:36.275Z,2.20
2023-04-12T03:17:36.628Z,1.80
2023-04-12T03:18:36.921Z,2.20
2023-04-12T03:19:37.232Z,1.90
2023-04-12T03:20:37.594Z,2.20
2023-04-12T03:21:37.884Z,2.10
2023-04-12T03:22:38.194Z,2.20
2023-04-12T03:23:38.493Z,2.00
2023-04-12T03:24:38.800Z,1.90
2023-04-12T03:25:39.089Z,2.40
2023-04-12T03:26:39.447Z,2.40
2023-04-12T03:27:39.760Z,2.30
2023-04-12T03:28:40.067Z,2.00
2023-04-12T03:29:40.399Z,2.00
2023-04-12T03:30:40.725Z,2.30
2023-04-12T03:31:41.124Z,2.40
2023-04-12T03:32:41.453Z,1.70
2023-04-12T03:33:41.625Z,2.10
2023-04-12T03:34:41.985Z,1.80
2023-04-12T03:35:42.251Z,1.80
2023-04-12T03:36:42.615Z,1.80
2023-04-12T03:37:42.794Z,1.80
2023-04-12T03:38:43.088Z,2.00
2023-04-12T03:39:43.424Z,1.60
2023-04-12T03:40:43.744Z,1.90
2023-04-12T03:41:44.072Z,1.90
2023-04-12T03:42:44.380Z,2.00
2023-04-12T03:43:44.684Z,1.80
2023-04-12T03:44:45.000Z,1.90
2023-04-12T03:45:45.311Z,1.90
2023-04-12T03:46:45.658Z,2.10
2023-04-12T03:47:46.035Z,1.80
2023-04-12T03:48:46.225Z,1.30
2023-04-12T03:49:57.543Z,2.00
2023-04-12T03:50:47.816Z,1.80
2023-04-12T03:51:47.103Z,2.00
2023-04-12T03:52:47.416Z,2.60
2023-04-12T03:53:47.738Z,2.30
2023-04-12T03:54:48.087Z,2.80
2023-04-12T03:55:48.315Z,2.30
2023-04-12T03:56:48.687Z,2.40
2023-04-12T03:57:48.909Z,1.70
2023-04-12T03:58:49.217Z,2.20
2023-04-12T03:59:49.541Z,2.40
2023-04-12T04:00:49.863Z,2.00
2023-04-12T04:01:50.237Z,2.10
2023-04-12T04:02:50.533Z,2.40
2023-04-12T04:03:50.886Z,2.10
2023-04-12T04:04:51.008Z,1.90
2023-04-12T04:05:51.320Z,2.50
2023-04-12T04:06:51.589Z,2.00
2023-04-12T04:07:51.811Z,2.20
2023-04-12T04:08:52.130Z,2.30
2023-04-12T04:09:52.470Z,2.70
2023-04-12T04:11:00.905Z,2.30
2023-04-12T04:11:53.207Z,2.20
2023-04-12T04:12:53.414Z,2.30
2023-04-12T04:13:53.643Z,1.80
2023-04-12T04:14:53.969Z,1.80
2023-04-12T04:15:54.267Z,1.90
2023-04-12T04:16:54.549Z,1.90
2023-04-12T04:17:54.800Z,2.10
2023-04-12T04:18:55.081Z,2.00
2023-04-12T04:19:55.303Z,2.40
2023-04-12T04:20:55.581Z,2.20
2023-04-12T04:21:55.869Z,2.40
2023-04-12T04:22:56.250Z,2.00
2023-04-12T04:23:56.747Z,2.00
2023-04-12T04:24:56.594Z,2.60
2023-04-12T04:25:56.819Z,2.20
2023-04-12T04:26:57.056Z,1.90
2023-04-12T04:27:57.291Z,2.40
2023-04-12T04:28:57.522Z,2.40
2023-04-12T04:29:57.800Z,2.50
2023-04-12T04:30:58.026Z,2.50
2023-04-12T04:31:58.335Z,2.20
2023-04-12T04:32:58.516Z,2.40
2023-04-12T04:33:59.020Z,2.20
2023-04-12T04:34:59.118Z,2.30
2023-04-12T04:35:59.565Z,1.90
2023-04-12T04:36:59.799Z,2.10
2023-04-12T04:37:59.995Z,2.60
2023-04-12T04:39:00.348Z,2.10
2023-04-12T04:40:00.617Z,2.20
2023-04-12T04:41:00.852Z,2.20
2023-04-12T04:42:01.102Z,1.90
2023-04-12T04:43:01.306Z,1.90
2023-04-12T04:44:01.554Z,2.10
2023-04-12T04:45:01.778Z,2.00
2023-04-12T04:46:02.080Z,1.80
2023-04-12T04:47:02.290Z,2.10
2023-04-12T04:48:02.571Z,1.80
2023-04-12T04:49:02.766Z,1.90
2023-04-12T04:50:03.141Z,2.40
2023-04-12T04:51:03.392Z,2.20
2023-04-12T04:52:03.629Z,2.00
2023-04-12T04:53:03.886Z,2.10
2023-04-12T04:54:05.150Z,2.10
2023-04-12T04:55:06.857Z,2.30
2023-04-12T04:56:04.760Z,2.10
2023-04-12T04:57:04.999Z,2.10
2023-04-12T04:58:06.070Z,2.00
2023-04-12T04:59:05.571Z,2.40
2023-04-12T05:00:05.956Z,2.40
2023-04-12T05:01:06.058Z,2.50
2023-04-12T05:02:06.429Z,2.70
2023-04-12T05:03:06.627Z,2.90
2023-04-12T05:04:06.993Z,2.60
2023-04-12T05:05:07.114Z,2.60
2023-04-12T05:06:07.346Z,2.60
2023-04-12T05:07:07.728Z,3.00
2023-04-12T05:08:07.911Z,2.60
2023-04-12T05:09:08.246Z,2.80
2023-04-12T05:10:08.605Z,2.80
2023-04-12T05:11:08.815Z,3.30
2023-04-12T05:12:09.180Z,3.00
2023-04-12T05:13:09.388Z,3.00
2023-04-12T05:14:12.007Z,3.70
2023-04-12T05:15:13.861Z,3.10
2023-04-12T05:16:10.483Z,2.70
2023-04-12T05:17:10.680Z,2.70
2023-04-12T05:18:10.920Z,2.50
2023-04-12T05:19:11.138Z,2.30
2023-04-12T05:20:11.381Z,2.40
2023-04-12T05:21:11.593Z,2.00
2023-04-12T05:22:11.961Z,2.00
2023-04-12T05:23:12.252Z,1.90
2023-04-12T05:24:12.477Z,1.80
2023-04-12T05:25:12.738Z,1.80
2023-04-12T05:26:12.955Z,1.80
2023-04-12T05:27:13.264Z,1.90
2023-04-12T05:28:13.555Z,2.10
2023-04-12T05:29:13.784Z,2.00
2023-04-12T05:30:14.067Z,1.70
2023-04-12T05:31:14.320Z,1.90
2023-04-12T05:32:14.588Z,1.50
2023-04-12T05:33:14.825Z,1.90
2023-04-12T05:34:15.134Z,1.80
2023-04-12T05:35:15.460Z,2.40
2023-04-12T05:36:15.674Z,1.90
2023-04-12T05:37:16.005Z,2.00
2023-04-12T05:38:16.268Z,2.10
2023-04-12T05:39:17.891Z,2.20
2023-04-12T05:40:16.796Z,2.00
2023-04-12T05:41:17.060Z,1.80
2023-04-12T05:42:17.337Z,2.20
2023-04-12T05:43:17.529Z,2.20
2023-04-12T05:44:17.777Z,2.50
2023-04-12T05:45:18.018Z,2.00
2023-04-12T05:46:18.307Z,2.20
2023-04-12T05:47:18.539Z,2.30
2023-04-12T05:48:18.834Z,2.10
2023-04-12T05:49:19.040Z,2.20
2023-04-12T05:50:19.304Z,2.30
2023-04-12T05:51:27.828Z,2.20
2023-04-12T05:52:20.886Z,2.10
2023-04-12T05:53:20.180Z,2.40
2023-04-12T05:54:20.435Z,2.60
2023-04-12T05:55:20.713Z,2.40
2023-04-12T05:56:20.960Z,2.10
2023-04-12T05:57:21.250Z,2.50
2023-04-12T05:58:21.524Z,2.40
2023-04-12T05:59:21.775Z,2.10
2023-04-12T06:00:22.006Z,2.20
2023-04-12T06:01:22.237Z,2.40
2023-04-12T06:02:22.590Z,2.40
2023-04-12T06:03:22.930Z,2.30
2023-04-12T06:04:25.147Z,2.00
2023-04-12T06:05:24.388Z,2.00
2023-04-12T06:06:23.664Z,2.00
2023-04-12T06:07:23.892Z,2.60
2023-04-12T06:08:24.135Z,2.40
2023-04-12T06:09:24.391Z,2.20
2023-04-12T06:10:24.621Z,2.50
2023-04-12T06:11:24.874Z,2.30
2023-04-12T06:12:25.118Z,2.30
2023-04-12T06:13:25.388Z,2.70
2023-04-12T06:14:25.619Z,2.20
2023-04-12T06:15:25.866Z,1.70
2023-04-12T06:16:26.177Z,2.30
2023-04-12T06:17:26.421Z,1.50
2023-04-12T06:18:26.655Z,1.80
2023-04-12T06:19:26.905Z,1.50
2023-04-12T06:20:27.178Z,1.90
2023-04-12T06:21:27.447Z,1.40
2023-04-12T06:22:27.673Z,1.50
2023-04-12T06:23:27.899Z,1.90
2023-04-12T06:24:28.250Z,1.80
2023-04-12T06:25:28.612Z,1.90
2023-04-12T06:26:37.299Z,2.00
2023-04-12T06:27:30.148Z,2.00
2023-04-12T06:28:29.414Z,2.00
2023-04-12T06:29:29.756Z,2.00
2023-04-12T06:30:30.164Z,2.00
2023-04-12T06:31:30.422Z,2.00
2023-04-12T06:32:30.633Z,1.90
2023-04-12T06:33:30.855Z,2.40
2023-04-12T06:34:32.320Z,2.20
2023-04-12T06:35:31.412Z,2.40
2023-04-12T06:36:31.729Z,2.50
2023-04-12T06:37:32.096Z,2.60
2023-04-12T06:38:32.337Z,2.60
2023-04-12T06:39:32.546Z,2.60
2023-04-12T06:40:32.887Z,2.80
2023-04-12T06:41:33.234Z,2.20
2023-04-12T06:42:33.597Z,2.50
2023-04-12T06:43:33.827Z,2.70
2023-04-12T06:44:34.173Z,2.90
2023-04-12T06:45:34.515Z,2.60
2023-04-12T06:46:34.790Z,2.90
2023-04-12T06:47:35.083Z,2.80
2023-04-12T06:48:35.305Z,2.50
2023-04-12T06:49:35.670Z,2.60
2023-04-12T06:50:35.911Z,3.10
2023-04-12T06:51:36.132Z,2.80
2023-04-12T06:52:36.362Z,2.80
2023-04-12T06:53:36.590Z,2.70
2023-04-12T06:54:37.013Z,2.60
2023-04-12T06:55:37.216Z,2.50
2023-04-12T06:56:37.567Z,2.80
2023-04-12T06:57:37.813Z,2.30
2023-04-12T06:58:38.024Z,1.90
2023-04-12T06:59:38.367Z,2.00
2023-04-12T07:00:38.787Z,1.70
2023-04-12T07:01:40.397Z,1.90
2023-04-12T07:02:39.580Z,1.70
2023-04-12T07:03:39.692Z,1.80
2023-04-12T07:04:39.914Z,1.80
2023-04-12T07:05:40.224Z,2.00
2023-04-12T07:06:40.584Z,2.00
2023-04-12T07:07:40.799Z,1.80
2023-04-12T07:08:41.123Z,2.20
2023-04-12T07:09:41.431Z,2.60
2023-04-12T07:10:41.775Z,1.70
2023-04-12T07:11:42.079Z,2.00
2023-04-12T07:12:42.455Z,1.90
2023-04-12T07:13:42.627Z,2.00
2023-04-12T07:14:44.624Z,2.40
2023-04-12T07:15:43.227Z,1.60
2023-04-12T07:16:43.611Z,2.10
2023-04-12T07:17:43.887Z,2.00
2023-04-12T07:18:44.177Z,1.90
2023-04-12T07:19:44.495Z,1.90
2023-04-12T07:20:44.779Z,2.40
2023-04-12T07:21:45.107Z,2.00
2023-04-12T07:22:45.452Z,1.90
2023-04-12T07:23:45.762Z,1.60
2023-04-12T07:24:46.802Z,1.80
2023-04-12T07:25:46.284Z,1.60
2023-04-12T07:26:46.621Z,1.50
2023-04-12T07:27:48.461Z,1.60
2023-04-12T07:28:47.092Z,1.60
2023-04-12T07:29:47.402Z,1.70
2023-04-12T07:30:47.680Z,1.30
2023-04-12T07:31:48.005Z,1.40
2023-04-12T07:32:48.363Z,1.80
2023-04-12T07:33:48.971Z,1.60
2023-04-12T07:34:48.943Z,1.60
2023-04-12T07:35:49.413Z,1.50
2023-04-12T07:36:49.559Z,1.60
2023-04-12T07:37:49.883Z,1.60
2023-04-12T07:38:50.200Z,2.00
2023-04-12T07:39:50.644Z,1.70
2023-04-12T07:40:50.754Z,1.50
2023-04-12T07:41:51.025Z,1.30
2023-04-12T07:42:51.334Z,1.40
2023-04-12T07:43:52.425Z,1.40
2023-04-12T07:44:52.014Z,1.60
2023-04-12T07:45:52.370Z,1.60
2023-04-12T07:46:52.552Z,1.60
2023-04-12T07:47:52.959Z,1.30
2023-04-12T07:48:53.551Z,1.60
2023-04-12T07:49:53.397Z,2.10
2023-04-12T07:50:53.698Z,1.80
2023-04-12T07:51:54.012Z,1.50
2023-04-12T07:52:54.313Z,1.30
2023-04-12T07:53:54.605Z,1.30
2023-04-12T07:54:54.915Z,1.60
2023-04-12T07:55:55.249Z,1.50
2023-04-12T07:56:55.577Z,1.30
2023-04-12T07:57:55.790Z,1.40
2023-04-12T07:58:57.130Z,1.40
2023-04-12T07:59:56.475Z,1.40
2023-04-12T08:00:58.000Z,1.20
2023-04-12T08:01:57.182Z,1.30
2023-04-12T08:02:57.478Z,1.50
2023-04-12T08:03:57.857Z,1.30
2023-04-12T08:04:57.829Z,1.40
2023-04-12T08:05:58.201Z,1.40
2023-04-12T08:06:58.400Z,1.20
2023-04-12T08:07:58.758Z,1.60
2023-04-12T08:08:59.017Z,1.50
2023-04-12T08:09:59.316Z,1.40
2023-04-12T08:10:59.688Z,1.90
2023-04-12T08:11:59.950Z,1.40
2023-04-12T08:13:00.218Z,1.30
2023-04-12T08:14:00.409Z,1.40
2023-04-12T08:15:00.759Z,1.00
2023-04-12T08:16:01.171Z,1.50
2023-04-12T08:17:01.420Z,1.20
2023-04-12T08:18:01.680Z,1.60
2023-04-12T08:19:02.304Z,1.70
2023-04-12T08:20:02.284Z,1.40
2023-04-12T08:21:02.504Z,1.30
2023-04-12T08:22:02.833Z,1.20
2023-04-12T08:23:03.070Z,1.40
2023-04-12T08:24:03.408Z,1.50
2023-04-12T08:25:03.645Z,1.20
2023-04-12T08:26:04.181Z,1.20
2023-04-12T08:27:04.364Z,1.50
2023-04-12T08:28:04.590Z,1.40
2023-04-12T08:29:04.793Z,1.30
2023-04-12T08:30:05.176Z,1.40
2023-04-12T08:31:05.435Z,1.10
2023-04-12T08:32:05.637Z,1.50
2023-04-12T08:33:06.059Z,1.10
2023-04-12T08:34:06.280Z,2.00
2023-04-12T08:35:06.542Z,1.20
2023-04-12T08:36:06.800Z,1.10
2023-04-12T08:37:07.003Z,1.00
2023-04-12T08:38:07.345Z,0.80
2023-04-12T08:39:07.663Z,1.00
2023-04-12T08:40:08.026Z,1.20
2023-04-12T08:41:08.384Z,1.10
2023-04-12T08:42:08.615Z,0.80
2023-04-12T08:43:08.882Z,1.40
2023-04-12T08:44:09.185Z,0.90
2023-04-12T08:45:09.440Z,0.90
2023-04-12T08:46:09.716Z,1.40
2023-04-12T08:47:09.885Z,1.20
2023-04-12T08:48:10.142Z,1.40
2023-04-12T08:49:10.478Z,0.90
2023-04-12T08:50:10.769Z,1.20
2023-04-12T08:51:11.004Z,1.00
2023-04-12T08:52:11.283Z,1.00
2023-04-12T08:53:11.523Z,0.90
2023-04-12T08:54:11.769Z,1.20
2023-04-12T08:55:12.013Z,1.10
2023-04-12T08:56:12.362Z,1.10
2023-04-12T08:57:12.601Z,1.10
2023-04-12T08:58:12.868Z,1.30
2023-04-12T08:59:13.086Z,0.90
2023-04-12T09:00:13.326Z,0.80
2023-04-12T09:01:13.565Z,1.00
2023-04-12T09:02:13.959Z,0.80
2023-04-12T09:03:14.345Z,0.80
2023-04-12T09:04:14.500Z,1.20
2023-04-12T09:05:14.721Z,1.10
2023-04-12T09:06:15.107Z,1.00
2023-04-12T09:07:15.339Z,0.90
2023-04-12T09:08:15.669Z,1.20
2023-04-12T09:09:15.932Z,0.70
2023-04-12T09:10:16.144Z,0.70
2023-04-12T09:11:16.390Z,0.70
2023-04-12T09:12:16.598Z,1.40
2023-04-12T09:13:16.830Z,1.10
2023-04-12T09:14:17.068Z,1.20
2023-04-12T09:15:17.299Z,0.90
2023-04-12T09:16:17.593Z,0.80
2023-04-12T09:17:17.792Z,0.80
2023-04-12T09:18:18.205Z,0.90
2023-04-12T09:19:18.435Z,1.00
2023-04-12T09:20:18.807Z,1.30
2023-04-12T09:21:19.049Z,1.20
2023-04-12T09:22:19.272Z,0.80
2023-04-12T09:23:19.488Z,0.80
2023-04-12T09:24:19.879Z,1.00
2023-04-12T09:25:20.101Z,0.70
2023-04-12T09:26:20.469Z,0.70
2023-04-12T09:27:20.693Z,1.30
2023-04-12T09:28:20.943Z,0.90
2023-04-12T09:29:21.153Z,0.90
2023-04-12T09:30:21.420Z,0.90
2023-04-12T09:31:21.743Z,0.80
2023-04-12T09:32:21.996Z,1.10
2023-04-12T09:33:22.226Z,0.70
2023-04-12T09:34:22.483Z,0.90
2023-04-12T09:35:22.665Z,1.00
2023-04-12T09:36:23.096Z,1.00
2023-04-12T09:37:23.320Z,1.10
2023-04-12T09:38:23.542Z,1.50
2023-04-12T09:39:23.754Z,0.90
2023-04-12T09:40:24.106Z,1.10
2023-04-12T09:41:26.989Z,1.00
2023-04-12T09:42:32.556Z,1.10
2023-04-12T09:43:25.975Z,1.50
2023-04-12T09:44:25.175Z,1.10
2023-04-12T09:45:25.811Z,0.90
2023-04-12T09:46:25.778Z,0.80
2023-04-12T09:47:26.022Z,1.20
2023-04-12T09:48:26.242Z,0.90
2023-04-12T09:49:26.444Z,0.90
2023-04-12T09:50:26.803Z,0.90
2023-04-12T09:51:27.050Z,0.90
2023-04-12T09:52:27.326Z,1.10
2023-04-12T09:53:27.556Z,0.80
2023-04-12T09:54:27.798Z,0.90
2023-04-12T09:55:28.035Z,1.30
2023-04-12T09:56:28.278Z,1.00
2023-04-12T09:57:28.526Z,0.90
2023-04-12T09:58:30.597Z,1.30
2023-04-12T09:59:28.979Z,1.00
2023-04-12T10:00:29.268Z,0.70
2023-04-12T10:01:29.528Z,0.80
2023-04-12T10:02:30.007Z,1.30
2023-04-12T10:03:30.250Z,1.10
2023-04-12T10:04:53.256Z,1.10
2023-04-12T10:05:30.748Z,1.30
2023-04-12T10:06:30.975Z,0.90
2023-04-12T10:07:31.226Z,0.90
2023-04-12T10:08:31.480Z,0.90
2023-04-12T10:09:31.737Z,0.80
2023-04-12T10:10:32.018Z,0.60
2023-04-12T10:11:32.232Z,0.90
2023-04-12T10:12:32.449Z,0.90
2023-04-12T10:13:32.680Z,0.90
2023-04-12T10:14:32.917Z,1.00
2023-04-12T10:15:33.200Z,1.10
2023-04-12T10:16:33.487Z,0.70
2023-04-12T10:17:33.730Z,1.00
2023-04-12T10:18:33.944Z,0.70
2023-04-12T10:19:34.204Z,0.70
2023-04-12T10:20:35.467Z,0.90
2023-04-12T10:21:34.772Z,0.90
2023-04-12T10:22:34.988Z,0.80
2023-04-12T10:23:35.225Z,1.10
2023-04-12T10:24:36.510Z,0.90
2023-04-12T10:25:35.831Z,0.60
2023-04-12T10:26:36.077Z,1.30
2023-04-12T10:27:36.387Z,1.10
2023-04-12T10:28:36.569Z,1.00
2023-04-12T10:29:36.969Z,0.90
2023-04-12T10:30:37.231Z,0.80
2023-04-12T10:31:37.637Z,0.90
2023-04-12T10:32:37.817Z,0.90
2023-04-12T10:33:38.075Z,0.80
2023-04-12T10:34:39.062Z,0.90
2023-04-12T10:35:38.662Z,0.80
2023-04-12T10:36:38.861Z,1.00
2023-04-12T10:37:39.099Z,0.70
2023-04-12T10:38:39.336Z,0.90
2023-04-12T10:39:39.612Z,0.90
2023-04-12T10:40:39.803Z,0.70
2023-04-12T10:41:40.077Z,0.80
2023-04-12T10:42:40.305Z,0.80
2023-04-12T10:43:40.565Z,1.00
2023-04-12T10:44:40.811Z,1.00
2023-04-12T10:45:41.027Z,0.90
2023-04-12T10:46:41.318Z,1.00
2023-04-12T10:47:41.568Z,0.70
2023-04-12T10:48:42.021Z,1.20
2023-04-12T10:49:42.141Z,0.90
2023-04-12T10:50:42.311Z,1.00
2023-04-12T10:51:42.585Z,0.80
2023-04-12T10:52:42.852Z,0.80
2023-04-12T10:53:43.100Z,1.00
2023-04-12T10:54:43.415Z,0.80
2023-04-12T10:55:43.632Z,0.80
2023-04-12T10:56:43.878Z,1.00
2023-04-12T10:57:44.124Z,1.10
2023-04-12T10:58:44.354Z,0.90
2023-04-12T11:00:45.097Z,0.90
2023-04-12T11:01:45.440Z,0.90
2023-04-12T11:02:45.609Z,1.00
2023-04-12T11:03:46.049Z,1.00
2023-04-12T11:04:46.298Z,0.90
2023-04-12T11:05:46.537Z,1.00
2023-04-12T11:06:46.836Z,0.90
2023-04-12T11:07:47.013Z,1.00
2023-04-12T11:08:47.276Z,0.60
2023-04-12T11:09:47.557Z,0.90
2023-04-12T11:10:47.722Z,1.00
2023-04-12T11:11:48.088Z,1.00
2023-04-12T11:12:48.328Z,0.70
2023-04-12T11:13:48.592Z,0.70
2023-04-12T11:14:49.781Z,1.00
2023-04-12T11:15:49.082Z,0.90
2023-04-12T11:16:49.535Z,0.90
2023-04-12T11:17:49.844Z,0.80
2023-04-12T11:18:50.131Z,1.10
2023-04-12T11:19:50.325Z,1.00
2023-04-12T11:20:50.702Z,1.10
2023-04-12T11:21:50.990Z,1.00
2023-04-12T11:22:51.243Z,0.80
2023-04-12T11:23:51.471Z,1.00
2023-04-12T11:24:51.735Z,0.80
2023-04-12T11:25:52.070Z,0.80
2023-04-12T11:26:52.287Z,1.30
2023-04-12T11:27:52.572Z,1.10
2023-04-12T11:28:52.832Z,0.90
2023-04-12T11:29:53.055Z,0.90
2023-04-12T11:30:53.280Z,0.70
2023-04-12T11:31:53.581Z,0.70
2023-04-12T11:32:53.797Z,0.80
2023-04-12T11:33:54.048Z,0.80
2023-04-12T11:34:54.294Z,0.90
2023-04-12T11:35:54.525Z,1.10
2023-04-12T11:36:54.767Z,1.00
2023-04-12T11:37:55.007Z,1.00
2023-04-12T11:38:55.537Z,0.90
2023-04-12T11:39:55.521Z,0.90
2023-04-12T11:40:55.756Z,1.10
2023-04-12T11:41:56.015Z,0.70
2023-04-12T11:42:56.218Z,0.90
2023-04-12T11:43:56.589Z,0.50
2023-04-12T11:44:59.200Z,0.80
2023-04-12T11:45:57.144Z,1.20
2023-04-12T11:46:57.377Z,1.10
2023-04-12T11:47:57.800Z,1.30
2023-04-12T11:48:58.102Z,0.80
2023-04-12T11:49:58.349Z,1.00
2023-04-12T11:51:10.471Z,0.90
2023-04-12T11:51:59.919Z,1.00
2023-04-12T11:52:59.195Z,0.70
2023-04-12T11:53:59.991Z,1.10
2023-04-12T11:54:59.787Z,0.50
2023-04-12T11:56:00.024Z,0.80
2023-04-12T11:57:00.301Z,0.80
2023-04-12T11:58:00.504Z,0.90
2023-04-12T11:59:00.748Z,0.80
2023-04-12T12:00:00.972Z,1.00
2023-04-12T12:01:01.214Z,0.80
2023-04-12T12:02:06.246Z,0.60
2023-04-12T12:03:07.243Z,0.90
2023-04-12T12:04:03.470Z,1.00
2023-04-12T12:05:02.700Z,1.00
2023-04-12T12:06:02.704Z,0.80
2023-04-12T12:07:03.436Z,0.90
2023-04-12T12:08:03.284Z,1.00
2023-04-12T12:09:03.522Z,1.00
2023-04-12T12:10:04.522Z,0.90
2023-04-12T12:11:08.402Z,1.00
2023-04-12T12:12:04.305Z,0.80
2023-04-12T12:13:04.553Z,1.10
2023-04-12T12:14:04.804Z,1.00
2023-04-12T12:15:05.042Z,0.70
2023-04-12T12:16:05.322Z,0.80
2023-04-12T12:17:05.541Z,0.80
2023-04-12T12:18:05.816Z,1.00
2023-04-12T12:19:06.133Z,1.40
2023-04-12T12:20:06.351Z,0.90
2023-04-12T12:21:06.629Z,0.80
2023-04-12T12:22:06.851Z,1.00
2023-04-12T12:23:07.096Z,0.90
2023-04-12T12:24:07.371Z,1.00
2023-04-12T12:25:07.574Z,0.80
2023-04-12T12:26:18.487Z,1.10
2023-04-12T12:27:09.336Z,1.10
2023-04-12T12:28:08.616Z,1.00
2023-04-12T12:29:08.812Z,1.20
2023-04-12T12:30:09.071Z,1.00
2023-04-12T12:31:09.374Z,0.80
2023-04-12T12:32:09.585Z,1.10
2023-04-12T12:33:09.824Z,0.80
2023-04-12T12:34:10.320Z,1.00
2023-04-12T12:35:10.307Z,1.20
2023-04-12T12:36:10.531Z,0.90
2023-04-12T12:37:10.762Z,0.90
2023-04-12T12:38:10.989Z,1.00
2023-04-12T12:39:11.805Z,0.80
2023-04-12T12:40:11.451Z,1.00
2023-04-12T12:41:11.805Z,0.80
2023-04-12T12:42:12.148Z,0.80
2023-04-12T12:43:12.510Z,0.70
2023-04-12T12:44:12.773Z,0.80
2023-04-12T12:45:13.002Z,1.10
2023-04-12T12:46:13.226Z,1.20
2023-04-12T12:47:14.824Z,1.30
2023-04-12T12:48:13.930Z,0.90
2023-04-12T12:49:14.011Z,1.20
2023-04-12T12:50:14.319Z,1.00
2023-04-12T12:51:14.633Z,1.10
2023-04-12T12:52:16.560Z,1.00
2023-04-12T12:53:15.100Z,0.80
2023-04-12T12:54:25.152Z,0.80
2023-04-12T12:55:16.664Z,0.70
2023-04-12T12:56:15.975Z,1.10
2023-04-12T12:57:16.175Z,0.80
2023-04-12T12:58:16.416Z,0.80
2023-04-12T12:59:16.640Z,1.20
2023-04-12T13:00:16.987Z,0.80
2023-04-12T13:01:17.330Z,0.90
2023-04-12T13:02:17.667Z,0.80
2023-04-12T13:03:18.150Z,0.90
2023-04-12T13:04:18.270Z,0.80
2023-04-12T13:05:18.483Z,1.20
2023-04-12T13:06:18.737Z,0.90
2023-04-12T13:07:18.972Z,1.00
2023-04-12T13:08:19.229Z,0.90
2023-04-12T13:09:19.439Z,0.80
2023-04-12T13:10:19.677Z,0.90
2023-04-12T13:11:19.901Z,0.80
2023-04-12T13:12:20.242Z,0.80
2023-04-12T13:13:21.094Z,0.80
2023-04-12T13:14:20.865Z,0.70
2023-04-12T13:15:23.880Z,0.90
2023-04-12T13:16:21.775Z,0.90
2023-04-12T13:17:21.639Z,0.90
2023-04-12T13:18:21.998Z,0.80
2023-04-12T13:19:22.205Z,0.90
2023-04-12T13:20:23.375Z,1.00
2023-04-12T13:21:22.892Z,1.00
2023-04-12T13:22:23.169Z,1.10
2023-04-12T13:23:23.433Z,0.80